sensor_id;sensor_type;location;lat;lon;timestamp;P1;durP1;ratioP1;P2;durP2;ratioP2
3465;SDS011;1747;48.884;9.160;2022-09-16T00:00:41;4.90;;;3.83;;
3465;SDS011;1747;48.884;9.160;2022-09-16T00:03:09;4.55;;;3.97;;
3465;SDS011;1747;48.884;9.160;2022-09-16T00:05:39;3.92;;;3.45;;
3465;SDS011;1747;48.884;9.160;2022-09-16T00:08:06;8.27;;;3.55;;
3465;SDS011;1747;48.884;9.160;2022-09-16T00:10:33;4.63;;;3.33;;
3465;SDS011;1747;48.884;9.160;2022-09-16T00:13:00;4.18;;;3.72;;
3465;SDS011;1747;48.884;9.160;2022-09-16T00:15:28;6.75;;;4.03;;
3465;SDS011;1747;48.884;9.160;2022-09-16T00:17:56;7.57;;;4.03;;
3465;SDS011;1747;48.884;9.160;2022-09-16T00:20:23;5.78;;;3.70;;
3465;SDS011;1747;48.884;9.160;2022-09-16T00:22:50;7.60;;;3.70;;
3465;SDS011;1747;48.884;9.160;2022-09-16T00:25:17;5.53;;;3.42;;
3465;SDS011;1747;48.884;9.160;2022-09-16T00:27:46;6.60;;;4.13;;
3465;SDS011;1747;48.884;9.160;2022-09-16T00:30:12;5.38;;;3.58;;
3465;SDS011;1747;48.884;9.160;2022-09-16T00:32:39;6.55;;;3.72;;
3465;SDS011;1747;48.884;9.160;2022-09-16T00:35:08;9.77;;;4.55;;
3465;SDS011;1747;48.884;9.160;2022-09-16T00:37:34;4.22;;;3.38;;
3465;SDS011;1747;48.884;9.160;2022-09-16T00:40:01;7.00;;;4.13;;
3465;SDS011;1747;48.884;9.160;2022-09-16T00:42:28;7.03;;;4.68;;
3465;SDS011;1747;48.884;9.160;2022-09-16T00:44:57;4.15;;;3.63;;
3465;SDS011;1747;48.884;9.160;2022-09-16T00:47:28;5.38;;;3.50;;
3465;SDS011;1747;48.884;9.160;2022-09-16T00:50:01;5.15;;;3.65;;
3465;SDS011;1747;48.884;9.160;2022-09-16T00:52:32;4.72;;;3.83;;
3465;SDS011;1747;48.884;9.160;2022-09-16T00:55:01;6.43;;;4.07;;
3465;SDS011;1747;48.884;9.160;2022-09-16T00:57:31;6.82;;;3.90;;
3465;SDS011;1747;48.884;9.160;2022-09-16T00:59:58;5.45;;;3.72;;
3465;SDS011;1747;48.884;9.160;2022-09-16T01:02:26;6.70;;;3.55;;
3465;SDS011;1747;48.884;9.160;2022-09-16T01:04:55;7.20;;;4.05;;
3465;SDS011;1747;48.884;9.160;2022-09-16T01:07:27;7.20;;;4.40;;
3465;SDS011;1747;48.884;9.160;2022-09-16T01:09:59;7.43;;;4.30;;
3465;SDS011;1747;48.884;9.160;2022-09-16T01:12:26;4.20;;;3.78;;
3465;SDS011;1747;48.884;9.160;2022-09-16T01:14:54;7.85;;;3.58;;
3465;SDS011;1747;48.884;9.160;2022-09-16T01:20:32;6.20;;;3.55;;
3465;SDS011;1747;48.884;9.160;2022-09-16T01:23:30;6.15;;;4.00;;
3465;SDS011;1747;48.884;9.160;2022-09-16T01:26:33;5.22;;;3.90;;
3465;SDS011;1747;48.884;9.160;2022-09-16T01:29:26;5.75;;;3.88;;
3465;SDS011;1747;48.884;9.160;2022-09-16T01:32:21;4.93;;;3.53;;
3465;SDS011;1747;48.884;9.160;2022-09-16T01:34:55;4.45;;;2.90;;
3465;SDS011;1747;48.884;9.160;2022-09-16T01:37:31;6.35;;;3.47;;
3465;SDS011;1747;48.884;9.160;2022-09-16T01:40:06;5.15;;;3.40;;
3465;SDS011;1747;48.884;9.160;2022-09-16T01:42:38;5.40;;;3.53;;
3465;SDS011;1747;48.884;9.160;2022-09-16T01:45:14;6.43;;;3.88;;
3465;SDS011;1747;48.884;9.160;2022-09-16T01:47:51;4.60;;;3.53;;
3465;SDS011;1747;48.884;9.160;2022-09-16T01:50:23;4.18;;;3.20;;
3465;SDS011;1747;48.884;9.160;2022-09-16T01:52:58;4.03;;;2.83;;
3465;SDS011;1747;48.884;9.160;2022-09-16T01:55:33;4.75;;;3.25;;
3465;SDS011;1747;48.884;9.160;2022-09-16T01:58:02;4.10;;;3.20;;
3465;SDS011;1747;48.884;9.160;2022-09-16T02:00:34;8.15;;;3.17;;
3465;SDS011;1747;48.884;9.160;2022-09-16T02:03:06;3.33;;;2.78;;
3465;SDS011;1747;48.884;9.160;2022-09-16T02:05:36;4.57;;;3.10;;
3465;SDS011;1747;48.884;9.160;2022-09-16T02:08:11;6.78;;;3.60;;
3465;SDS011;1747;48.884;9.160;2022-09-16T02:10:40;6.18;;;3.10;;
3465;SDS011;1747;48.884;9.160;2022-09-16T02:13:18;4.05;;;2.75;;
3465;SDS011;1747;48.884;9.160;2022-09-16T02:15:49;4.40;;;2.72;;
3465;SDS011;1747;48.884;9.160;2022-09-16T02:18:21;5.85;;;3.20;;
3465;SDS011;1747;48.884;9.160;2022-09-16T02:20:51;4.95;;;2.88;;
3465;SDS011;1747;48.884;9.160;2022-09-16T02:23:21;6.53;;;3.20;;
3465;SDS011;1747;48.884;9.160;2022-09-16T02:25:52;3.97;;;2.85;;
3465;SDS011;1747;48.884;9.160;2022-09-16T02:28:21;5.78;;;2.95;;
3465;SDS011;1747;48.884;9.160;2022-09-16T02:30:52;8.35;;;2.97;;
3465;SDS011;1747;48.884;9.160;2022-09-16T02:33:23;6.93;;;3.28;;
3465;SDS011;1747;48.884;9.160;2022-09-16T02:35:57;7.15;;;2.83;;
3465;SDS011;1747;48.884;9.160;2022-09-16T02:38:28;4.75;;;2.70;;
3465;SDS011;1747;48.884;9.160;2022-09-16T02:40:58;4.13;;;2.60;;
3465;SDS011;1747;48.884;9.160;2022-09-16T02:43:26;6.10;;;2.55;;
3465;SDS011;1747;48.884;9.160;2022-09-16T02:45:57;4.75;;;3.47;;
3465;SDS011;1747;48.884;9.160;2022-09-16T02:48:30;5.43;;;2.50;;
3465;SDS011;1747;48.884;9.160;2022-09-16T02:51:09;3.22;;;2.28;;
3465;SDS011;1747;48.884;9.160;2022-09-16T02:53:44;5.20;;;2.90;;
3465;SDS011;1747;48.884;9.160;2022-09-16T02:56:17;4.63;;;2.83;;
3465;SDS011;1747;48.884;9.160;2022-09-16T02:58:47;4.18;;;2.95;;
3465;SDS011;1747;48.884;9.160;2022-09-16T03:01:14;4.80;;;2.97;;
3465;SDS011;1747;48.884;9.160;2022-09-16T03:03:43;4.57;;;3.05;;
3465;SDS011;1747;48.884;9.160;2022-09-16T03:06:16;4.75;;;3.08;;
3465;SDS011;1747;48.884;9.160;2022-09-16T03:08:45;4.95;;;2.72;;
3465;SDS011;1747;48.884;9.160;2022-09-16T03:17:02;4.32;;;2.75;;
3465;SDS011;1747;48.884;9.160;2022-09-16T03:19:40;3.70;;;2.60;;
3465;SDS011;1747;48.884;9.160;2022-09-16T03:22:16;4.30;;;3.05;;
3465;SDS011;1747;48.884;9.160;2022-09-16T03:24:51;4.38;;;3.00;;
3465;SDS011;1747;48.884;9.160;2022-09-16T03:27:24;4.25;;;3.22;;
3465;SDS011;1747;48.884;9.160;2022-09-16T03:29:58;5.50;;;3.22;;
3465;SDS011;1747;48.884;9.160;2022-09-16T03:32:29;4.22;;;2.80;;
3465;SDS011;1747;48.884;9.160;2022-09-16T03:45:16;3.38;;;2.53;;
3465;SDS011;1747;48.884;9.160;2022-09-16T03:47:45;3.70;;;2.40;;
3465;SDS011;1747;48.884;9.160;2022-09-16T03:50:15;4.47;;;2.80;;
3465;SDS011;1747;48.884;9.160;2022-09-16T03:52:42;4.50;;;3.15;;
3465;SDS011;1747;48.884;9.160;2022-09-16T03:55:09;4.10;;;2.95;;
3465;SDS011;1747;48.884;9.160;2022-09-16T03:57:37;4.53;;;3.10;;
3465;SDS011;1747;48.884;9.160;2022-09-16T04:00:05;4.53;;;3.03;;
3465;SDS011;1747;48.884;9.160;2022-09-16T04:02:34;5.80;;;3.05;;
3465;SDS011;1747;48.884;9.160;2022-09-16T04:05:01;6.43;;;2.80;;
3465;SDS011;1747;48.884;9.160;2022-09-16T04:07:30;4.68;;;3.00;;
3465;SDS011;1747;48.884;9.160;2022-09-16T04:09:57;4.53;;;2.78;;
3465;SDS011;1747;48.884;9.160;2022-09-16T04:12:25;4.32;;;2.58;;
3465;SDS011;1747;48.884;9.160;2022-09-16T04:14:51;4.72;;;2.83;;
3465;SDS011;1747;48.884;9.160;2022-09-16T04:17:18;4.60;;;2.70;;
3465;SDS011;1747;48.884;9.160;2022-09-16T04:19:46;5.95;;;2.80;;
3465;SDS011;1747;48.884;9.160;2022-09-16T04:22:13;3.47;;;2.40;;
3465;SDS011;1747;48.884;9.160;2022-09-16T04:24:41;3.97;;;3.05;;
3465;SDS011;1747;48.884;9.160;2022-09-16T04:27:07;7.65;;;2.95;;
3465;SDS011;1747;48.884;9.160;2022-09-16T04:29:34;6.35;;;2.83;;
3465;SDS011;1747;48.884;9.160;2022-09-16T04:32:01;7.10;;;2.78;;
3465;SDS011;1747;48.884;9.160;2022-09-16T04:34:28;3.78;;;2.97;;
3465;SDS011;1747;48.884;9.160;2022-09-16T04:36:57;4.90;;;2.83;;
3465;SDS011;1747;48.884;9.160;2022-09-16T04:39:24;4.65;;;2.70;;
3465;SDS011;1747;48.884;9.160;2022-09-16T04:41:51;6.15;;;3.38;;
3465;SDS011;1747;48.884;9.160;2022-09-16T04:44:18;6.63;;;3.15;;
3465;SDS011;1747;48.884;9.160;2022-09-16T04:46:44;5.82;;;2.95;;
3465;SDS011;1747;48.884;9.160;2022-09-16T04:49:11;5.05;;;3.10;;
3465;SDS011;1747;48.884;9.160;2022-09-16T04:51:38;3.55;;;2.65;;
3465;SDS011;1747;48.884;9.160;2022-09-16T04:54:06;7.05;;;2.88;;
3465;SDS011;1747;48.884;9.160;2022-09-16T04:56:33;4.63;;;3.20;;
3465;SDS011;1747;48.884;9.160;2022-09-16T04:59:01;4.50;;;2.92;;
3465;SDS011;1747;48.884;9.160;2022-09-16T05:01:30;5.40;;;2.78;;
3465;SDS011;1747;48.884;9.160;2022-09-16T05:03:58;8.50;;;2.95;;
3465;SDS011;1747;48.884;9.160;2022-09-16T05:06:28;7.22;;;2.85;;
3465;SDS011;1747;48.884;9.160;2022-09-16T05:08:57;4.38;;;2.47;;
3465;SDS011;1747;48.884;9.160;2022-09-16T05:11:27;3.63;;;3.03;;
3465;SDS011;1747;48.884;9.160;2022-09-16T05:13:57;5.05;;;3.65;;
3465;SDS011;1747;48.884;9.160;2022-09-16T05:16:24;6.20;;;3.08;;
3465;SDS011;1747;48.884;9.160;2022-09-16T05:18:52;5.90;;;3.50;;
3465;SDS011;1747;48.884;9.160;2022-09-16T05:21:20;3.92;;;2.88;;
3465;SDS011;1747;48.884;9.160;2022-09-16T05:23:49;8.23;;;2.92;;
3465;SDS011;1747;48.884;9.160;2022-09-16T05:26:17;6.28;;;3.30;;
3465;SDS011;1747;48.884;9.160;2022-09-16T05:28:47;5.18;;;2.78;;
3465;SDS011;1747;48.884;9.160;2022-09-16T05:31:16;3.33;;;2.40;;
3465;SDS011;1747;48.884;9.160;2022-09-16T05:33:44;4.10;;;2.65;;
3465;SDS011;1747;48.884;9.160;2022-09-16T05:36:13;5.43;;;3.03;;
3465;SDS011;1747;48.884;9.160;2022-09-16T05:38:41;4.22;;;2.90;;
3465;SDS011;1747;48.884;9.160;2022-09-16T05:41:08;3.22;;;2.65;;
3465;SDS011;1747;48.884;9.160;2022-09-16T05:43:35;4.00;;;2.63;;
3465;SDS011;1747;48.884;9.160;2022-09-16T05:46:04;4.90;;;2.42;;
3465;SDS011;1747;48.884;9.160;2022-09-16T05:48:32;7.40;;;2.60;;
3465;SDS011;1747;48.884;9.160;2022-09-16T05:51:00;6.55;;;2.67;;
3465;SDS011;1747;48.884;9.160;2022-09-16T05:53:29;7.45;;;2.50;;
3465;SDS011;1747;48.884;9.160;2022-09-16T05:55:57;7.50;;;2.60;;
3465;SDS011;1747;48.884;9.160;2022-09-16T05:58:26;3.47;;;2.47;;
3465;SDS011;1747;48.884;9.160;2022-09-16T06:00:56;5.18;;;2.75;;
3465;SDS011;1747;48.884;9.160;2022-09-16T06:03:26;5.75;;;2.60;;
3465;SDS011;1747;48.884;9.160;2022-09-16T06:05:58;8.30;;;2.50;;
3465;SDS011;1747;48.884;9.160;2022-09-16T06:08:25;5.88;;;2.33;;
3465;SDS011;1747;48.884;9.160;2022-09-16T06:10:53;5.50;;;2.28;;
3465;SDS011;1747;48.884;9.160;2022-09-16T06:13:20;5.20;;;2.70;;
3465;SDS011;1747;48.884;9.160;2022-09-16T06:15:47;7.88;;;2.90;;
3465;SDS011;1747;48.884;9.160;2022-09-16T06:18:15;3.17;;;2.28;;
3465;SDS011;1747;48.884;9.160;2022-09-16T06:20:44;5.82;;;2.80;;
3465;SDS011;1747;48.884;9.160;2022-09-16T06:23:11;6.10;;;2.50;;
3465;SDS011;1747;48.884;9.160;2022-09-16T06:25:38;6.75;;;2.75;;
3465;SDS011;1747;48.884;9.160;2022-09-16T06:28:05;5.35;;;2.90;;
3465;SDS011;1747;48.884;9.160;2022-09-16T06:30:33;7.05;;;2.65;;
3465;SDS011;1747;48.884;9.160;2022-09-16T06:33:00;6.55;;;2.42;;
3465;SDS011;1747;48.884;9.160;2022-09-16T06:35:27;5.65;;;3.00;;
3465;SDS011;1747;48.884;9.160;2022-09-16T06:37:55;4.03;;;2.50;;
3465;SDS011;1747;48.884;9.160;2022-09-16T06:40:22;5.38;;;2.70;;
3465;SDS011;1747;48.884;9.160;2022-09-16T06:42:51;4.70;;;2.70;;
3465;SDS011;1747;48.884;9.160;2022-09-16T06:45:18;8.93;;;3.63;;
3465;SDS011;1747;48.884;9.160;2022-09-16T06:47:45;4.70;;;2.75;;
3465;SDS011;1747;48.884;9.160;2022-09-16T06:50:12;4.40;;;2.40;;
3465;SDS011;1747;48.884;9.160;2022-09-16T06:52:39;7.30;;;3.28;;
3465;SDS011;1747;48.884;9.160;2022-09-16T06:55:07;3.70;;;2.83;;
3465;SDS011;1747;48.884;9.160;2022-09-16T06:57:34;4.53;;;2.60;;
3465;SDS011;1747;48.884;9.160;2022-09-16T07:00:01;5.60;;;3.00;;
3465;SDS011;1747;48.884;9.160;2022-09-16T07:02:28;5.78;;;2.83;;
3465;SDS011;1747;48.884;9.160;2022-09-16T07:04:55;6.32;;;3.20;;
3465;SDS011;1747;48.884;9.160;2022-09-16T07:07:22;3.95;;;2.90;;
3465;SDS011;1747;48.884;9.160;2022-09-16T07:09:49;5.45;;;2.35;;
3465;SDS011;1747;48.884;9.160;2022-09-16T07:12:18;5.93;;;2.80;;
3465;SDS011;1747;48.884;9.160;2022-09-16T07:14:44;5.20;;;2.53;;
3465;SDS011;1747;48.884;9.160;2022-09-16T07:17:11;4.40;;;2.50;;
3465;SDS011;1747;48.884;9.160;2022-09-16T07:19:38;4.63;;;2.90;;
3465;SDS011;1747;48.884;9.160;2022-09-16T07:22:06;7.15;;;2.78;;
3465;SDS011;1747;48.884;9.160;2022-09-16T07:24:35;7.28;;;3.10;;
3465;SDS011;1747;48.884;9.160;2022-09-16T07:27:02;5.30;;;2.80;;
3465;SDS011;1747;48.884;9.160;2022-09-16T07:29:30;3.42;;;2.10;;
3465;SDS011;1747;48.884;9.160;2022-09-16T07:31:57;4.93;;;2.63;;
3465;SDS011;1747;48.884;9.160;2022-09-16T07:34:24;4.72;;;2.50;;
3465;SDS011;1747;48.884;9.160;2022-09-16T07:36:51;6.93;;;2.80;;
3465;SDS011;1747;48.884;9.160;2022-09-16T07:39:18;4.95;;;2.75;;
3465;SDS011;1747;48.884;9.160;2022-09-16T07:41:46;3.88;;;2.70;;
3465;SDS011;1747;48.884;9.160;2022-09-16T07:44:14;2.42;;;2.22;;
3465;SDS011;1747;48.884;9.160;2022-09-16T07:46:43;5.78;;;3.17;;
3465;SDS011;1747;48.884;9.160;2022-09-16T07:49:12;5.32;;;2.47;;
3465;SDS011;1747;48.884;9.160;2022-09-16T07:51:41;32.80;;;19.38;;
3465;SDS011;1747;48.884;9.160;2022-09-16T07:54:09;8.40;;;5.43;;
3465;SDS011;1747;48.884;9.160;2022-09-16T07:56:37;32.85;;;17.45;;
3465;SDS011;1747;48.884;9.160;2022-09-16T07:59:06;36.42;;;21.58;;
3465;SDS011;1747;48.884;9.160;2022-09-16T08:01:35;17.20;;;9.98;;
3465;SDS011;1747;48.884;9.160;2022-09-16T08:04:03;5.75;;;3.03;;
3465;SDS011;1747;48.884;9.160;2022-09-16T08:06:31;4.03;;;3.35;;
3465;SDS011;1747;48.884;9.160;2022-09-16T08:08:59;5.38;;;2.83;;
3465;SDS011;1747;48.884;9.160;2022-09-16T08:11:28;6.55;;;2.80;;
3465;SDS011;1747;48.884;9.160;2022-09-16T08:13:56;3.22;;;2.40;;
3465;SDS011;1747;48.884;9.160;2022-09-16T08:16:24;3.85;;;3.13;;
3465;SDS011;1747;48.884;9.160;2022-09-16T08:18:53;6.63;;;3.40;;
3465;SDS011;1747;48.884;9.160;2022-09-16T08:21:23;3.70;;;2.65;;
3465;SDS011;1747;48.884;9.160;2022-09-16T08:23:50;5.25;;;2.67;;
3465;SDS011;1747;48.884;9.160;2022-09-16T08:26:18;3.33;;;2.28;;
3465;SDS011;1747;48.884;9.160;2022-09-16T08:28:46;4.50;;;2.80;;
3465;SDS011;1747;48.884;9.160;2022-09-16T08:31:14;3.83;;;2.80;;
3465;SDS011;1747;48.884;9.160;2022-09-16T08:33:41;4.25;;;2.88;;
3465;SDS011;1747;48.884;9.160;2022-09-16T08:36:10;3.75;;;2.50;;
3465;SDS011;1747;48.884;9.160;2022-09-16T08:38:41;6.18;;;2.40;;
3465;SDS011;1747;48.884;9.160;2022-09-16T08:41:22;4.45;;;2.55;;
3465;SDS011;1747;48.884;9.160;2022-09-16T08:43:56;4.43;;;2.80;;
3465;SDS011;1747;48.884;9.160;2022-09-16T08:46:32;4.50;;;2.65;;
3465;SDS011;1747;48.884;9.160;2022-09-16T08:49:06;3.00;;;2.53;;
3465;SDS011;1747;48.884;9.160;2022-09-16T08:51:41;2.60;;;2.30;;
3465;SDS011;1747;48.884;9.160;2022-09-16T08:54:12;3.88;;;2.13;;
3465;SDS011;1747;48.884;9.160;2022-09-16T08:56:49;4.50;;;2.97;;
3465;SDS011;1747;48.884;9.160;2022-09-16T08:59:19;5.53;;;2.63;;
3465;SDS011;1747;48.884;9.160;2022-09-16T09:01:51;3.00;;;2.45;;
3465;SDS011;1747;48.884;9.160;2022-09-16T09:04:23;3.65;;;2.60;;
3465;SDS011;1747;48.884;9.160;2022-09-16T09:06:54;4.60;;;2.83;;
3465;SDS011;1747;48.884;9.160;2022-09-16T09:09:35;6.70;;;2.47;;
3465;SDS011;1747;48.884;9.160;2022-09-16T09:12:31;3.33;;;2.20;;
3465;SDS011;1747;48.884;9.160;2022-09-16T09:15:07;4.60;;;2.80;;
3465;SDS011;1747;48.884;9.160;2022-09-16T09:17:51;3.80;;;2.80;;
3465;SDS011;1747;48.884;9.160;2022-09-16T09:20:29;5.55;;;2.60;;
3465;SDS011;1747;48.884;9.160;2022-09-16T09:23:09;4.82;;;2.60;;
3465;SDS011;1747;48.884;9.160;2022-09-16T09:25:56;7.43;;;2.88;;
3465;SDS011;1747;48.884;9.160;2022-09-16T09:28:37;4.93;;;2.72;;
3465;SDS011;1747;48.884;9.160;2022-09-16T09:31:23;3.35;;;2.35;;
3465;SDS011;1747;48.884;9.160;2022-09-16T09:34:00;5.78;;;2.60;;
3465;SDS011;1747;48.884;9.160;2022-09-16T09:36:35;3.38;;;2.42;;
3465;SDS011;1747;48.884;9.160;2022-09-16T09:39:19;3.92;;;2.55;;
3465;SDS011;1747;48.884;9.160;2022-09-16T09:41:58;6.43;;;2.97;;
3465;SDS011;1747;48.884;9.160;2022-09-16T09:44:38;4.47;;;2.80;;
3465;SDS011;1747;48.884;9.160;2022-09-16T09:47:14;4.50;;;3.00;;
3465;SDS011;1747;48.884;9.160;2022-09-16T09:49:47;4.90;;;3.38;;
3465;SDS011;1747;48.884;9.160;2022-09-16T09:52:18;5.05;;;3.38;;
3465;SDS011;1747;48.884;9.160;2022-09-16T09:54:51;4.85;;;3.00;;
3465;SDS011;1747;48.884;9.160;2022-09-16T09:57:22;4.65;;;2.72;;
3465;SDS011;1747;48.884;9.160;2022-09-16T09:59:56;4.65;;;2.60;;
3465;SDS011;1747;48.884;9.160;2022-09-16T10:02:28;4.63;;;2.60;;
3465;SDS011;1747;48.884;9.160;2022-09-16T10:04:55;3.35;;;2.40;;
3465;SDS011;1747;48.884;9.160;2022-09-16T10:07:22;4.88;;;2.55;;
3465;SDS011;1747;48.884;9.160;2022-09-16T10:09:53;4.07;;;2.45;;
3465;SDS011;1747;48.884;9.160;2022-09-16T10:12:27;4.78;;;2.80;;
3465;SDS011;1747;48.884;9.160;2022-09-16T10:14:55;5.20;;;2.85;;
3465;SDS011;1747;48.884;9.160;2022-09-16T10:17:23;6.25;;;2.78;;
3465;SDS011;1747;48.884;9.160;2022-09-16T10:19:51;3.92;;;2.67;;
3465;SDS011;1747;48.884;9.160;2022-09-16T10:22:21;3.28;;;2.40;;
3465;SDS011;1747;48.884;9.160;2022-09-16T10:24:54;3.55;;;2.30;;
3465;SDS011;1747;48.884;9.160;2022-09-16T10:27:23;6.15;;;2.22;;
3465;SDS011;1747;48.884;9.160;2022-09-16T10:32:47;3.30;;;2.28;;
3465;SDS011;1747;48.884;9.160;2022-09-16T10:35:20;2.40;;;2.17;;
3465;SDS011;1747;48.884;9.160;2022-09-16T10:37:50;2.97;;;2.22;;
3465;SDS011;1747;48.884;9.160;2022-09-16T10:40:19;2.95;;;2.40;;
3465;SDS011;1747;48.884;9.160;2022-09-16T10:42:47;3.15;;;2.25;;
3465;SDS011;1747;48.884;9.160;2022-09-16T10:45:20;4.35;;;2.70;;
3465;SDS011;1747;48.884;9.160;2022-09-16T10:47:51;4.82;;;3.15;;
3465;SDS011;1747;48.884;9.160;2022-09-16T10:50:20;3.85;;;2.80;;
3465;SDS011;1747;48.884;9.160;2022-09-16T10:52:47;3.92;;;2.47;;
3465;SDS011;1747;48.884;9.160;2022-09-16T10:55:22;6.35;;;2.70;;
3465;SDS011;1747;48.884;9.160;2022-09-16T10:57:52;4.63;;;2.60;;
3465;SDS011;1747;48.884;9.160;2022-09-16T11:00:21;8.13;;;2.80;;
3465;SDS011;1747;48.884;9.160;2022-09-16T11:03:03;5.38;;;3.17;;
3465;SDS011;1747;48.884;9.160;2022-09-16T11:05:51;3.70;;;2.85;;
3465;SDS011;1747;48.884;9.160;2022-09-16T11:08:33;4.53;;;3.00;;
3465;SDS011;1747;48.884;9.160;2022-09-16T11:11:13;4.72;;;2.90;;
3465;SDS011;1747;48.884;9.160;2022-09-16T11:13:47;6.35;;;2.83;;
3465;SDS011;1747;48.884;9.160;2022-09-16T11:19:17;2.95;;;2.30;;
3465;SDS011;1747;48.884;9.160;2022-09-16T11:21:54;7.00;;;2.80;;
3465;SDS011;1747;48.884;9.160;2022-09-16T11:24:33;5.03;;;2.42;;
3465;SDS011;1747;48.884;9.160;2022-09-16T11:27:17;5.97;;;2.80;;
3465;SDS011;1747;48.884;9.160;2022-09-16T11:29:56;9.85;;;2.38;;
3465;SDS011;1747;48.884;9.160;2022-09-16T11:32:32;9.57;;;2.35;;
3465;SDS011;1747;48.884;9.160;2022-09-16T11:35:21;4.10;;;2.20;;
3465;SDS011;1747;48.884;9.160;2022-09-16T11:38:01;4.82;;;2.13;;
3465;SDS011;1747;48.884;9.160;2022-09-16T11:40:42;4.03;;;2.42;;
3465;SDS011;1747;48.884;9.160;2022-09-16T11:43:22;3.45;;;1.75;;
3465;SDS011;1747;48.884;9.160;2022-09-16T11:46:15;2.47;;;2.20;;
3465;SDS011;1747;48.884;9.160;2022-09-16T11:48:53;5.20;;;2.10;;
3465;SDS011;1747;48.884;9.160;2022-09-16T11:51:34;5.47;;;2.72;;
3465;SDS011;1747;48.884;9.160;2022-09-16T11:54:21;5.07;;;2.95;;
3465;SDS011;1747;48.884;9.160;2022-09-16T11:57:02;2.90;;;1.80;;
3465;SDS011;1747;48.884;9.160;2022-09-16T11:59:34;3.85;;;2.38;;
3465;SDS011;1747;48.884;9.160;2022-09-16T12:02:09;7.05;;;2.00;;
3465;SDS011;1747;48.884;9.160;2022-09-16T12:04:41;4.68;;;1.80;;
3465;SDS011;1747;48.884;9.160;2022-09-16T12:07:14;3.33;;;1.42;;
3465;SDS011;1747;48.884;9.160;2022-09-16T12:09:47;3.00;;;1.25;;
3465;SDS011;1747;48.884;9.160;2022-09-16T12:12:18;2.90;;;1.15;;
3465;SDS011;1747;48.884;9.160;2022-09-16T12:14:51;4.15;;;1.38;;
3465;SDS011;1747;48.884;9.160;2022-09-16T12:17:20;3.40;;;1.40;;
3465;SDS011;1747;48.884;9.160;2022-09-16T12:19:51;2.90;;;1.60;;
3465;SDS011;1747;48.884;9.160;2022-09-16T12:22:24;4.60;;;1.77;;
3465;SDS011;1747;48.884;9.160;2022-09-16T12:24:56;3.42;;;1.52;;
3465;SDS011;1747;48.884;9.160;2022-09-16T12:27:38;3.42;;;1.85;;
3465;SDS011;1747;48.884;9.160;2022-09-16T12:30:13;3.00;;;1.90;;
3465;SDS011;1747;48.884;9.160;2022-09-16T12:32:45;3.15;;;1.38;;
3465;SDS011;1747;48.884;9.160;2022-09-16T12:35:19;1.98;;;1.42;;
3465;SDS011;1747;48.884;9.160;2022-09-16T12:37:50;3.88;;;1.70;;
3465;SDS011;1747;48.884;9.160;2022-09-16T12:40:19;5.15;;;1.50;;
3465;SDS011;1747;48.884;9.160;2022-09-16T12:52:17;2.58;;;1.42;;
3465;SDS011;1747;48.884;9.160;2022-09-16T12:55:03;1.55;;;1.27;;
3465;SDS011;1747;48.884;9.160;2022-09-16T12:57:51;3.95;;;1.23;;
3465;SDS011;1747;48.884;9.160;2022-09-16T13:00:38;3.95;;;1.20;;
3465;SDS011;1747;48.884;9.160;2022-09-16T13:03:09;2.97;;;1.30;;
3465;SDS011;1747;48.884;9.160;2022-09-16T13:05:43;2.90;;;1.27;;
3465;SDS011;1747;48.884;9.160;2022-09-16T13:08:17;3.30;;;1.50;;
3465;SDS011;1747;48.884;9.160;2022-09-16T13:10:53;4.93;;;1.60;;
3465;SDS011;1747;48.884;9.160;2022-09-16T13:13:26;2.72;;;1.50;;
3465;SDS011;1747;48.884;9.160;2022-09-16T13:15:56;3.08;;;1.50;;
3465;SDS011;1747;48.884;9.160;2022-09-16T13:18:36;2.30;;;1.40;;
3465;SDS011;1747;48.884;9.160;2022-09-16T13:21:12;1.98;;;1.60;;
3465;SDS011;1747;48.884;9.160;2022-09-16T13:23:50;4.30;;;1.73;;
3465;SDS011;1747;48.884;9.160;2022-09-16T13:26:22;3.90;;;1.42;;
3465;SDS011;1747;48.884;9.160;2022-09-16T13:28:49;3.50;;;1.40;;
3465;SDS011;1747;48.884;9.160;2022-09-16T13:31:17;2.42;;;1.52;;
3465;SDS011;1747;48.884;9.160;2022-09-16T13:33:45;3.85;;;1.90;;
3465;SDS011;1747;48.884;9.160;2022-09-16T13:36:28;3.05;;;1.50;;
3465;SDS011;1747;48.884;9.160;2022-09-16T13:38:58;4.20;;;1.80;;
3465;SDS011;1747;48.884;9.160;2022-09-16T13:41:33;2.17;;;1.40;;
3465;SDS011;1747;48.884;9.160;2022-09-16T13:44:02;1.75;;;1.50;;
3465;SDS011;1747;48.884;9.160;2022-09-16T13:46:44;3.80;;;1.77;;
3465;SDS011;1747;48.884;9.160;2022-09-16T13:49:14;2.55;;;1.65;;
3465;SDS011;1747;48.884;9.160;2022-09-16T13:51:44;2.25;;;1.85;;
3465;SDS011;1747;48.884;9.160;2022-09-16T13:54:26;4.40;;;2.08;;
3465;SDS011;1747;48.884;9.160;2022-09-16T13:57:00;1.42;;;1.33;;
3465;SDS011;1747;48.884;9.160;2022-09-16T13:59:38;3.40;;;1.67;;
3465;SDS011;1747;48.884;9.160;2022-09-16T14:02:18;2.90;;;1.60;;
3465;SDS011;1747;48.884;9.160;2022-09-16T14:04:57;3.05;;;1.50;;
3465;SDS011;1747;48.884;9.160;2022-09-16T14:07:42;3.72;;;1.58;;
3465;SDS011;1747;48.884;9.160;2022-09-16T14:10:17;3.13;;;1.38;;
3465;SDS011;1747;48.884;9.160;2022-09-16T14:12:53;3.85;;;1.60;;
3465;SDS011;1747;48.884;9.160;2022-09-16T14:15:27;3.55;;;1.75;;
3465;SDS011;1747;48.884;9.160;2022-09-16T14:17:59;3.00;;;1.30;;
3465;SDS011;1747;48.884;9.160;2022-09-16T14:20:28;1.92;;;1.33;;
3465;SDS011;1747;48.884;9.160;2022-09-16T14:23:01;4.97;;;1.70;;
3465;SDS011;1747;48.884;9.160;2022-09-16T14:25:31;3.38;;;1.70;;
3465;SDS011;1747;48.884;9.160;2022-09-16T14:28:06;4.88;;;1.80;;
3465;SDS011;1747;48.884;9.160;2022-09-16T14:30:34;3.17;;;1.35;;
3465;SDS011;1747;48.884;9.160;2022-09-16T14:33:01;4.68;;;1.65;;
3465;SDS011;1747;48.884;9.160;2022-09-16T14:35:28;2.42;;;1.42;;
3465;SDS011;1747;48.884;9.160;2022-09-16T14:37:56;3.25;;;1.40;;
3465;SDS011;1747;48.884;9.160;2022-09-16T14:40:26;2.42;;;1.27;;
3465;SDS011;1747;48.884;9.160;2022-09-16T14:42:56;6.20;;;1.25;;
3465;SDS011;1747;48.884;9.160;2022-09-16T14:45:27;6.95;;;1.40;;
3465;SDS011;1747;48.884;9.160;2022-09-16T14:47:55;1.90;;;1.02;;
3465;SDS011;1747;48.884;9.160;2022-09-16T14:50:27;1.83;;;1.17;;
3465;SDS011;1747;48.884;9.160;2022-09-16T14:52:56;4.45;;;1.40;;
3465;SDS011;1747;48.884;9.160;2022-09-16T14:55:25;2.38;;;1.17;;
3465;SDS011;1747;48.884;9.160;2022-09-16T14:57:56;4.57;;;1.45;;
3465;SDS011;1747;48.884;9.160;2022-09-16T15:00:24;1.85;;;1.45;;
3465;SDS011;1747;48.884;9.160;2022-09-16T15:02:57;2.75;;;1.35;;
3465;SDS011;1747;48.884;9.160;2022-09-16T15:05:31;4.88;;;1.30;;
3465;SDS011;1747;48.884;9.160;2022-09-16T15:08:02;4.75;;;1.55;;
3465;SDS011;1747;48.884;9.160;2022-09-16T15:10:34;2.75;;;1.52;;
3465;SDS011;1747;48.884;9.160;2022-09-16T15:13:03;3.70;;;1.70;;
3465;SDS011;1747;48.884;9.160;2022-09-16T15:15:36;5.65;;;1.70;;
3465;SDS011;1747;48.884;9.160;2022-09-16T15:18:10;2.80;;;1.25;;
3465;SDS011;1747;48.884;9.160;2022-09-16T15:20:48;5.03;;;1.60;;
3465;SDS011;1747;48.884;9.160;2022-09-16T15:23:19;3.20;;;1.27;;
3465;SDS011;1747;48.884;9.160;2022-09-16T15:25:52;3.88;;;1.30;;
3465;SDS011;1747;48.884;9.160;2022-09-16T15:28:23;3.45;;;1.35;;
3465;SDS011;1747;48.884;9.160;2022-09-16T15:30:51;5.28;;;1.40;;
3465;SDS011;1747;48.884;9.160;2022-09-16T15:33:21;2.70;;;1.38;;
3465;SDS011;1747;48.884;9.160;2022-09-16T15:35:53;2.47;;;1.58;;
3465;SDS011;1747;48.884;9.160;2022-09-16T15:38:21;2.92;;;1.50;;
3465;SDS011;1747;48.884;9.160;2022-09-16T15:40:58;6.35;;;1.92;;
3465;SDS011;1747;48.884;9.160;2022-09-16T15:43:28;3.75;;;1.55;;
3465;SDS011;1747;48.884;9.160;2022-09-16T15:46:01;3.13;;;1.60;;
3465;SDS011;1747;48.884;9.160;2022-09-16T15:48:32;2.55;;;1.10;;
3465;SDS011;1747;48.884;9.160;2022-09-16T15:51:02;3.63;;;1.45;;
3465;SDS011;1747;48.884;9.160;2022-09-16T15:53:34;4.10;;;1.40;;
3465;SDS011;1747;48.884;9.160;2022-09-16T15:56:06;3.53;;;1.30;;
3465;SDS011;1747;48.884;9.160;2022-09-16T15:58:45;3.38;;;1.50;;
3465;SDS011;1747;48.884;9.160;2022-09-16T16:01:14;4.50;;;1.73;;
3465;SDS011;1747;48.884;9.160;2022-09-16T16:03:46;3.63;;;1.30;;
3465;SDS011;1747;48.884;9.160;2022-09-16T16:06:17;4.18;;;1.63;;
3465;SDS011;1747;48.884;9.160;2022-09-16T16:09:02;2.03;;;1.17;;
3465;SDS011;1747;48.884;9.160;2022-09-16T16:11:29;3.47;;;1.45;;
3465;SDS011;1747;48.884;9.160;2022-09-16T16:13:58;2.05;;;1.30;;
3465;SDS011;1747;48.884;9.160;2022-09-16T16:16:25;6.10;;;1.48;;